sensor_id;sensor_type;location;lat;lon;timestamp;pressure;altitude;pressure_sealevel;temperature
20058;BMP180;10189;49.546;7.906;2022-09-21T00:01:29;98994.00;;;8.50
20058;BMP180;10189;49.546;7.906;2022-09-21T00:04:01;98988.00;;;8.40
20058;BMP180;10189;49.546;7.906;2022-09-21T00:06:31;98984.00;;;8.40
20058;BMP180;10189;49.546;7.906;2022-09-21T00:08:57;98991.00;;;8.40
20058;BMP180;10189;49.546;7.906;2022-09-21T00:11:27;98985.00;;;8.30
20058;BMP180;10189;49.546;7.906;2022-09-21T00:14:01;98991.00;;;8.30
20058;BMP180;10189;49.546;7.906;2022-09-21T00:16:29;98988.00;;;8.30
20058;BMP180;10189;49.546;7.906;2022-09-21T00:18:56;98986.00;;;8.30
20058;BMP180;10189;49.546;7.906;2022-09-21T00:21:22;98985.00;;;8.30
20058;BMP180;10189;49.546;7.906;2022-09-21T00:23:49;98993.00;;;8.30
20058;BMP180;10189;49.546;7.906;2022-09-21T00:26:19;98987.00;;;8.20
20058;BMP180;10189;49.546;7.906;2022-09-21T00:28:45;98989.00;;;8.20
20058;BMP180;10189;49.546;7.906;2022-09-21T00:31:16;98987.00;;;8.20
20058;BMP180;10189;49.546;7.906;2022-09-21T00:33:43;98982.00;;;8.10
20058;BMP180;10189;49.546;7.906;2022-09-21T00:36:12;98995.00;;;8.10
20058;BMP180;10189;49.546;7.906;2022-09-21T00:38:39;98993.00;;;8.10
20058;BMP180;10189;49.546;7.906;2022-09-21T00:41:07;98992.00;;;8.10
20058;BMP180;10189;49.546;7.906;2022-09-21T00:43:38;98994.00;;;8.10
20058;BMP180;10189;49.546;7.906;2022-09-21T00:46:29;98990.00;;;8.10
20058;BMP180;10189;49.546;7.906;2022-09-21T00:48:57;98996.00;;;8.00
20058;BMP180;10189;49.546;7.906;2022-09-21T00:51:24;98999.00;;;8.00
20058;BMP180;10189;49.546;7.906;2022-09-21T00:54:06;98990.00;;;7.90
20058;BMP180;10189;49.546;7.906;2022-09-21T00:56:35;98993.00;;;8.00
20058;BMP180;10189;49.546;7.906;2022-09-21T00:59:02;98997.00;;;7.90
20058;BMP180;10189;49.546;7.906;2022-09-21T01:01:29;98989.00;;;7.90
20058;BMP180;10189;49.546;7.906;2022-09-21T01:03:55;98986.00;;;7.90
20058;BMP180;10189;49.546;7.906;2022-09-21T01:06:22;98998.00;;;7.90
20058;BMP180;10189;49.546;7.906;2022-09-21T01:08:53;98998.00;;;7.80
20058;BMP180;10189;49.546;7.906;2022-09-21T01:15:50;98988.00;;;7.80
20058;BMP180;10189;49.546;7.906;2022-09-21T01:23:15;98996.00;;;7.80
20058;BMP180;10189;49.546;7.906;2022-09-21T01:28:54;98994.00;;;7.80
20058;BMP180;10189;49.546;7.906;2022-09-21T01:31:27;99000.00;;;7.80
20058;BMP180;10189;49.546;7.906;2022-09-21T01:34:06;99005.00;;;7.80
20058;BMP180;10189;49.546;7.906;2022-09-21T01:36:35;99001.00;;;7.80
20058;BMP180;10189;49.546;7.906;2022-09-21T01:39:10;99002.00;;;7.70
20058;BMP180;10189;49.546;7.906;2022-09-21T01:41:39;99003.00;;;7.70
20058;BMP180;10189;49.546;7.906;2022-09-21T01:44:12;98989.00;;;7.70
20058;BMP180;10189;49.546;7.906;2022-09-21T01:46:39;98998.00;;;7.70
20058;BMP180;10189;49.546;7.906;2022-09-21T01:49:23;98997.00;;;7.60
20058;BMP180;10189;49.546;7.906;2022-09-21T01:52:55;98990.00;;;7.60
20058;BMP180;10189;49.546;7.906;2022-09-21T01:55:29;98988.00;;;7.50
20058;BMP180;10189;49.546;7.906;2022-09-21T01:58:08;98989.00;;;7.50
20058;BMP180;10189;49.546;7.906;2022-09-21T02:00:38;98991.00;;;7.50
20058;BMP180;10189;49.546;7.906;2022-09-21T02:05:52;98999.00;;;7.40
20058;BMP180;10189;49.546;7.906;2022-09-21T02:08:18;98992.00;;;7.40
20058;BMP180;10189;49.546;7.906;2022-09-21T02:10:49;99001.00;;;7.40
20058;BMP180;10189;49.546;7.906;2022-09-21T02:13:18;98993.00;;;7.40
20058;BMP180;10189;49.546;7.906;2022-09-21T02:19:45;98994.00;;;7.30
20058;BMP180;10189;49.546;7.906;2022-09-21T02:24:41;98993.00;;;7.30
20058;BMP180;10189;49.546;7.906;2022-09-21T02:30:23;98992.00;;;7.30
20058;BMP180;10189;49.546;7.906;2022-09-21T02:33:10;98995.00;;;7.20
20058;BMP180;10189;49.546;7.906;2022-09-21T02:35:50;98991.00;;;7.30
20058;BMP180;10189;49.546;7.906;2022-09-21T02:38:43;98999.00;;;7.20
20058;BMP180;10189;49.546;7.906;2022-09-21T02:44:13;98993.00;;;7.20
20058;BMP180;10189;49.546;7.906;2022-09-21T02:46:52;98994.00;;;7.20
20058;BMP180;10189;49.546;7.906;2022-09-21T02:49:33;98996.00;;;7.30
20058;BMP180;10189;49.546;7.906;2022-09-21T02:52:08;98989.00;;;7.40
20058;BMP180;10189;49.546;7.906;2022-09-21T02:54:38;98993.00;;;7.40
20058;BMP180;10189;49.546;7.906;2022-09-21T02:57:07;98991.00;;;7.40
20058;BMP180;10189;49.546;7.906;2022-09-21T02:59:34;98988.00;;;7.40
20058;BMP180;10189;49.546;7.906;2022-09-21T03:02:00;98984.00;;;7.50
20058;BMP180;10189;49.546;7.906;2022-09-21T03:04:26;98981.00;;;7.50
20058;BMP180;10189;49.546;7.906;2022-09-21T03:06:52;98980.00;;;7.50
20058;BMP180;10189;49.546;7.906;2022-09-21T03:09:18;98979.00;;;7.50
20058;BMP180;10189;49.546;7.906;2022-09-21T03:11:45;98984.00;;;7.60
20058;BMP180;10189;49.546;7.906;2022-09-21T03:14:11;98980.00;;;7.70
20058;BMP180;10189;49.546;7.906;2022-09-21T03:16:37;98987.00;;;7.70
20058;BMP180;10189;49.546;7.906;2022-09-21T03:19:04;98983.00;;;7.70
20058;BMP180;10189;49.546;7.906;2022-09-21T03:21:31;98982.00;;;7.70
20058;BMP180;10189;49.546;7.906;2022-09-21T03:23:57;98983.00;;;7.70
20058;BMP180;10189;49.546;7.906;2022-09-21T03:26:22;98995.00;;;7.80
20058;BMP180;10189;49.546;7.906;2022-09-21T03:28:49;98987.00;;;7.80
20058;BMP180;10189;49.546;7.906;2022-09-21T03:31:15;98995.00;;;7.70
20058;BMP180;10189;49.546;7.906;2022-09-21T03:33:41;98998.00;;;7.60
20058;BMP180;10189;49.546;7.906;2022-09-21T03:36:08;98989.00;;;7.60
20058;BMP180;10189;49.546;7.906;2022-09-21T03:38:34;98994.00;;;7.60
20058;BMP180;10189;49.546;7.906;2022-09-21T03:41:01;98997.00;;;7.50
20058;BMP180;10189;49.546;7.906;2022-09-21T03:43:26;99004.00;;;7.50
20058;BMP180;10189;49.546;7.906;2022-09-21T03:45:52;99000.00;;;7.50
20058;BMP180;10189;49.546;7.906;2022-09-21T03:48:18;99002.00;;;7.40
20058;BMP180;10189;49.546;7.906;2022-09-21T03:50:44;99009.00;;;7.40
20058;BMP180;10189;49.546;7.906;2022-09-21T03:53:10;98998.00;;;7.30
20058;BMP180;10189;49.546;7.906;2022-09-21T03:55:36;99001.00;;;7.20
20058;BMP180;10189;49.546;7.906;2022-09-21T03:58:03;99001.00;;;7.10
20058;BMP180;10189;49.546;7.906;2022-09-21T04:00:29;98998.00;;;7.20
20058;BMP180;10189;49.546;7.906;2022-09-21T04:02:55;99000.00;;;7.10
20058;BMP180;10189;49.546;7.906;2022-09-21T04:05:22;98999.00;;;7.00
20058;BMP180;10189;49.546;7.906;2022-09-21T04:07:48;99005.00;;;7.00
20058;BMP180;10189;49.546;7.906;2022-09-21T04:10:20;99004.00;;;6.90
20058;BMP180;10189;49.546;7.906;2022-09-21T04:12:56;99007.00;;;6.90
20058;BMP180;10189;49.546;7.906;2022-09-21T04:15:22;99006.00;;;6.90
20058;BMP180;10189;49.546;7.906;2022-09-21T04:17:52;99014.00;;;6.80
20058;BMP180;10189;49.546;7.906;2022-09-21T04:20:20;99018.00;;;6.80
20058;BMP180;10189;49.546;7.906;2022-09-21T04:22:46;99010.00;;;6.90
20058;BMP180;10189;49.546;7.906;2022-09-21T04:25:13;99007.00;;;6.90
20058;BMP180;10189;49.546;7.906;2022-09-21T04:27:40;99011.00;;;6.90
20058;BMP180;10189;49.546;7.906;2022-09-21T04:30:07;99017.00;;;6.90
20058;BMP180;10189;49.546;7.906;2022-09-21T04:32:33;99012.00;;;6.90
20058;BMP180;10189;49.546;7.906;2022-09-21T04:34:59;99011.00;;;6.90
20058;BMP180;10189;49.546;7.906;2022-09-21T04:37:25;99016.00;;;6.80
20058;BMP180;10189;49.546;7.906;2022-09-21T04:39:50;99020.00;;;6.80
20058;BMP180;10189;49.546;7.906;2022-09-21T04:42:16;99031.00;;;6.80
20058;BMP180;10189;49.546;7.906;2022-09-21T04:44:42;99026.00;;;6.80
20058;BMP180;10189;49.546;7.906;2022-09-21T04:47:08;99031.00;;;6.80
20058;BMP180;10189;49.546;7.906;2022-09-21T04:49:34;99022.00;;;6.70
20058;BMP180;10189;49.546;7.906;2022-09-21T04:52:00;99029.00;;;6.60
20058;BMP180;10189;49.546;7.906;2022-09-21T04:54:26;99027.00;;;6.60
20058;BMP180;10189;49.546;7.906;2022-09-21T04:56:52;99030.00;;;6.60
20058;BMP180;10189;49.546;7.906;2022-09-21T04:59:18;99033.00;;;6.50
20058;BMP180;10189;49.546;7.906;2022-09-21T05:01:43;99031.00;;;6.50
20058;BMP180;10189;49.546;7.906;2022-09-21T05:04:09;99029.00;;;6.50
20058;BMP180;10189;49.546;7.906;2022-09-21T05:06:35;99032.00;;;6.50
20058;BMP180;10189;49.546;7.906;2022-09-21T05:09:01;99032.00;;;6.50
20058;BMP180;10189;49.546;7.906;2022-09-21T05:11:46;99044.00;;;6.50
20058;BMP180;10189;49.546;7.906;2022-09-21T05:14:12;99035.00;;;6.50
20058;BMP180;10189;49.546;7.906;2022-09-21T05:16:38;99038.00;;;6.50
20058;BMP180;10189;49.546;7.906;2022-09-21T05:19:04;99058.00;;;6.40
20058;BMP180;10189;49.546;7.906;2022-09-21T05:21:30;99053.00;;;6.40
20058;BMP180;10189;49.546;7.906;2022-09-21T05:23:57;99056.00;;;6.30
20058;BMP180;10189;49.546;7.906;2022-09-21T05:26:23;99068.00;;;6.30
20058;BMP180;10189;49.546;7.906;2022-09-21T05:28:50;99067.00;;;6.30
20058;BMP180;10189;49.546;7.906;2022-09-21T05:33:51;99067.00;;;6.30
20058;BMP180;10189;49.546;7.906;2022-09-21T05:39:42;99070.00;;;6.30
20058;BMP180;10189;49.546;7.906;2022-09-21T05:42:09;99069.00;;;6.30
20058;BMP180;10189;49.546;7.906;2022-09-21T05:44:36;99064.00;;;6.30
20058;BMP180;10189;49.546;7.906;2022-09-21T05:50:02;99068.00;;;6.40
20058;BMP180;10189;49.546;7.906;2022-09-21T05:52:44;99062.00;;;6.50
20058;BMP180;10189;49.546;7.906;2022-09-21T05:58:15;99064.00;;;6.80
20058;BMP180;10189;49.546;7.906;2022-09-21T06:04:08;99058.00;;;7.30
20058;BMP180;10189;49.546;7.906;2022-09-21T06:06:34;99070.00;;;7.60
20058;BMP180;10189;49.546;7.906;2022-09-21T06:09:00;99060.00;;;7.90
20058;BMP180;10189;49.546;7.906;2022-09-21T06:11:26;99048.00;;;8.50
20058;BMP180;10189;49.546;7.906;2022-09-21T06:13:52;99052.00;;;8.60
20058;BMP180;10189;49.546;7.906;2022-09-21T06:16:18;99063.00;;;8.70
20058;BMP180;10189;49.546;7.906;2022-09-21T06:18:44;99064.00;;;8.60
20058;BMP180;10189;49.546;7.906;2022-09-21T06:21:09;99060.00;;;8.60
20058;BMP180;10189;49.546;7.906;2022-09-21T06:23:36;99059.00;;;8.60
20058;BMP180;10189;49.546;7.906;2022-09-21T06:26:02;99060.00;;;8.70
20058;BMP180;10189;49.546;7.906;2022-09-21T06:28:28;99058.00;;;8.90
20058;BMP180;10189;49.546;7.906;2022-09-21T06:30:56;99058.00;;;9.00
20058;BMP180;10189;49.546;7.906;2022-09-21T06:33:23;99053.00;;;9.30
20058;BMP180;10189;49.546;7.906;2022-09-21T06:35:57;99042.00;;;9.60
20058;BMP180;10189;49.546;7.906;2022-09-21T06:38:26;99050.00;;;10.00
20058;BMP180;10189;49.546;7.906;2022-09-21T06:40:52;99035.00;;;10.20
20058;BMP180;10189;49.546;7.906;2022-09-21T06:43:19;99047.00;;;10.60
20058;BMP180;10189;49.546;7.906;2022-09-21T06:45:57;99040.00;;;10.90
20058;BMP180;10189;49.546;7.906;2022-09-21T06:48:24;99035.00;;;11.10
20058;BMP180;10189;49.546;7.906;2022-09-21T06:50:50;99040.00;;;11.20
20058;BMP180;10189;49.546;7.906;2022-09-21T06:53:16;99040.00;;;11.40
20058;BMP180;10189;49.546;7.906;2022-09-21T06:55:42;99041.00;;;11.50
20058;BMP180;10189;49.546;7.906;2022-09-21T06:58:08;99041.00;;;11.70
20058;BMP180;10189;49.546;7.906;2022-09-21T07:00:34;99048.00;;;11.80
20058;BMP180;10189;49.546;7.906;2022-09-21T07:03:00;99037.00;;;11.90
20058;BMP180;10189;49.546;7.906;2022-09-21T07:05:26;99032.00;;;12.00
20058;BMP180;10189;49.546;7.906;2022-09-21T07:07:58;99030.00;;;12.20
20058;BMP180;10189;49.546;7.906;2022-09-21T07:10:24;99037.00;;;12.10
20058;BMP180;10189;49.546;7.906;2022-09-21T07:12:50;99033.00;;;12.20
20058;BMP180;10189;49.546;7.906;2022-09-21T07:15:17;99032.00;;;12.10
20058;BMP180;10189;49.546;7.906;2022-09-21T07:17:46;99024.00;;;12.20
20058;BMP180;10189;49.546;7.906;2022-09-21T07:20:12;99028.00;;;12.30
20058;BMP180;10189;49.546;7.906;2022-09-21T07:22:38;99032.00;;;12.50
20058;BMP180;10189;49.546;7.906;2022-09-21T07:25:05;99037.00;;;12.60
20058;BMP180;10189;49.546;7.906;2022-09-21T07:27:32;99035.00;;;12.60
20058;BMP180;10189;49.546;7.906;2022-09-21T07:29:58;99041.00;;;12.60
20058;BMP180;10189;49.546;7.906;2022-09-21T07:32:24;99030.00;;;12.60
20058;BMP180;10189;49.546;7.906;2022-09-21T07:34:51;99027.00;;;12.70
20058;BMP180;10189;49.546;7.906;2022-09-21T07:37:24;99026.00;;;12.80
20058;BMP180;10189;49.546;7.906;2022-09-21T07:39:51;99029.00;;;13.00
20058;BMP180;10189;49.546;7.906;2022-09-21T07:42:19;99037.00;;;12.90
20058;BMP180;10189;49.546;7.906;2022-09-21T07:44:47;99034.00;;;13.10
20058;BMP180;10189;49.546;7.906;2022-09-21T07:47:14;99035.00;;;13.20
20058;BMP180;10189;49.546;7.906;2022-09-21T07:49:40;99049.00;;;13.20
20058;BMP180;10189;49.546;7.906;2022-09-21T07:52:07;99030.00;;;13.40
20058;BMP180;10189;49.546;7.906;2022-09-21T07:54:37;99025.00;;;13.50
20058;BMP180;10189;49.546;7.906;2022-09-21T07:57:03;99030.00;;;13.60
20058;BMP180;10189;49.546;7.906;2022-09-21T07:59:47;99025.00;;;13.60
20058;BMP180;10189;49.546;7.906;2022-09-21T08:02:13;99027.00;;;13.70
20058;BMP180;10189;49.546;7.906;2022-09-21T08:04:39;99024.00;;;13.80
20058;BMP180;10189;49.546;7.906;2022-09-21T08:07:05;99024.00;;;13.80
20058;BMP180;10189;49.546;7.906;2022-09-21T08:09:31;99019.00;;;13.80
20058;BMP180;10189;49.546;7.906;2022-09-21T08:11:57;99016.00;;;13.80
20058;BMP180;10189;49.546;7.906;2022-09-21T08:14:23;99020.00;;;13.90
20058;BMP180;10189;49.546;7.906;2022-09-21T08:16:49;99020.00;;;13.90
20058;BMP180;10189;49.546;7.906;2022-09-21T08:19:15;99023.00;;;14.10
20058;BMP180;10189;49.546;7.906;2022-09-21T08:21:42;99015.00;;;14.20
20058;BMP180;10189;49.546;7.906;2022-09-21T08:24:09;99015.00;;;14.30
20058;BMP180;10189;49.546;7.906;2022-09-21T08:26:35;99025.00;;;14.30
20058;BMP180;10189;49.546;7.906;2022-09-21T08:29:01;99027.00;;;14.40
20058;BMP180;10189;49.546;7.906;2022-09-21T08:31:27;99026.00;;;14.30
20058;BMP180;10189;49.546;7.906;2022-09-21T08:33:54;99023.00;;;14.10
20058;BMP180;10189;49.546;7.906;2022-09-21T08:36:22;99023.00;;;13.90
20058;BMP180;10189;49.546;7.906;2022-09-21T08:38:48;99021.00;;;14.20
20058;BMP180;10189;49.546;7.906;2022-09-21T08:41:54;99031.00;;;14.30
20058;BMP180;10189;49.546;7.906;2022-09-21T08:44:29;99034.00;;;14.40
20058;BMP180;10189;49.546;7.906;2022-09-21T08:47:20;99022.00;;;14.60
20058;BMP180;10189;49.546;7.906;2022-09-21T08:49:56;99035.00;;;14.50
20058;BMP180;10189;49.546;7.906;2022-09-21T08:52:25;99030.00;;;14.50
20058;BMP180;10189;49.546;7.906;2022-09-21T08:54:58;99025.00;;;14.60
20058;BMP180;10189;49.546;7.906;2022-09-21T08:57:30;99031.00;;;14.60
20058;BMP180;10189;49.546;7.906;2022-09-21T08:59:58;99023.00;;;14.90
20058;BMP180;10189;49.546;7.906;2022-09-21T09:05:36;99020.00;;;15.10
20058;BMP180;10189;49.546;7.906;2022-09-21T09:08:17;99017.00;;;15.20
20058;BMP180;10189;49.546;7.906;2022-09-21T09:13:56;99019.00;;;15.20
20058;BMP180;10189;49.546;7.906;2022-09-21T09:19:42;99015.00;;;15.60
20058;BMP180;10189;49.546;7.906;2022-09-21T09:22:16;99015.00;;;15.60
20058;BMP180;10189;49.546;7.906;2022-09-21T09:24:48;99006.00;;;15.70
20058;BMP180;10189;49.546;7.906;2022-09-21T09:27:27;99012.00;;;15.70
20058;BMP180;10189;49.546;7.906;2022-09-21T09:32:48;99010.00;;;16.10
20058;BMP180;10189;49.546;7.906;2022-09-21T09:35:42;99007.00;;;16.20
20058;BMP180;10189;49.546;7.906;2022-09-21T09:38:16;99004.00;;;15.90
20058;BMP180;10189;49.546;7.906;2022-09-21T09:47:24;99008.00;;;16.10
20058;BMP180;10189;49.546;7.906;2022-09-21T09:52:58;99000.00;;;16.40
20058;BMP180;10189;49.546;7.906;2022-09-21T09:55:39;98994.00;;;16.30
20058;BMP180;10189;49.546;7.906;2022-09-21T09:58:25;98999.00;;;16.10
20058;BMP180;10189;49.546;7.906;2022-09-21T10:00:55;98999.00;;;16.10
20058;BMP180;10189;49.546;7.906;2022-09-21T10:03:27;98985.00;;;16.10
20058;BMP180;10189;49.546;7.906;2022-09-21T10:05:53;98994.00;;;16.20
20058;BMP180;10189;49.546;7.906;2022-09-21T10:08:43;98992.00;;;15.80
20058;BMP180;10189;49.546;7.906;2022-09-21T10:11:14;98993.00;;;16.10
20058;BMP180;10189;49.546;7.906;2022-09-21T10:13:44;98992.00;;;16.10
20058;BMP180;10189;49.546;7.906;2022-09-21T10:19:00;98984.00;;;15.80
20058;BMP180;10189;49.546;7.906;2022-09-21T10:24:06;98994.00;;;16.00
20058;BMP180;10189;49.546;7.906;2022-09-21T10:26:41;98986.00;;;16.00
20058;BMP180;10189;49.546;7.906;2022-09-21T10:34:38;98981.00;;;16.30
20058;BMP180;10189;49.546;7.906;2022-09-21T10:37:31;98982.00;;;16.50
20058;BMP180;10189;49.546;7.906;2022-09-21T10:40:03;98979.00;;;16.60
20058;BMP180;10189;49.546;7.906;2022-09-21T10:42:37;98974.00;;;16.60
20058;BMP180;10189;49.546;7.906;2022-09-21T10:45:20;98971.00;;;16.80
20058;BMP180;10189;49.546;7.906;2022-09-21T10:48:14;98971.00;;;16.60
20058;BMP180;10189;49.546;7.906;2022-09-21T10:50:45;98977.00;;;16.70
20058;BMP180;10189;49.546;7.906;2022-09-21T10:53:30;98956.00;;;16.60
20058;BMP180;10189;49.546;7.906;2022-09-21T10:58:25;98961.00;;;16.40
20058;BMP180;10189;49.546;7.906;2022-09-21T11:00:53;98966.00;;;16.50
20058;BMP180;10189;49.546;7.906;2022-09-21T11:06:12;98972.00;;;16.20
20058;BMP180;10189;49.546;7.906;2022-09-21T11:09:27;98963.00;;;16.60
20058;BMP180;10189;49.546;7.906;2022-09-21T11:12:22;98965.00;;;16.80
20058;BMP180;10189;49.546;7.906;2022-09-21T11:15:17;98965.00;;;16.60
20058;BMP180;10189;49.546;7.906;2022-09-21T11:20:47;98957.00;;;16.70
20058;BMP180;10189;49.546;7.906;2022-09-21T11:26:24;98950.00;;;16.90
20058;BMP180;10189;49.546;7.906;2022-09-21T11:29:01;98947.00;;;17.00
20058;BMP180;10189;49.546;7.906;2022-09-21T11:38:12;98952.00;;;17.00
20058;BMP180;10189;49.546;7.906;2022-09-21T11:44:18;98954.00;;;16.90
20058;BMP180;10189;49.546;7.906;2022-09-21T11:55:10;98956.00;;;17.10
20058;BMP180;10189;49.546;7.906;2022-09-21T11:58:09;98939.00;;;17.10
20058;BMP180;10189;49.546;7.906;2022-09-21T12:03:58;98943.00;;;17.30
20058;BMP180;10189;49.546;7.906;2022-09-21T12:09:45;98922.00;;;17.40
20058;BMP180;10189;49.546;7.906;2022-09-21T12:17:56;98936.00;;;17.60
20058;BMP180;10189;49.546;7.906;2022-09-21T12:20:53;98937.00;;;17.20
20058;BMP180;10189;49.546;7.906;2022-09-21T12:23:33;98931.00;;;17.30
20058;BMP180;10189;49.546;7.906;2022-09-21T12:26:02;98938.00;;;17.20
20058;BMP180;10189;49.546;7.906;2022-09-21T12:28:46;98928.00;;;17.10
20058;BMP180;10189;49.546;7.906;2022-09-21T12:31:24;98937.00;;;17.10
20058;BMP180;10189;49.546;7.906;2022-09-21T12:33:57;98933.00;;;17.20
20058;BMP180;10189;49.546;7.906;2022-09-21T12:36:41;98923.00;;;17.20
20058;BMP180;10189;49.546;7.906;2022-09-21T12:39:24;98918.00;;;17.40
20058;BMP180;10189;49.546;7.906;2022-09-21T12:42:28;98913.00;;;17.60
20058;BMP180;10189;49.546;7.906;2022-09-21T12:48:23;98927.00;;;17.70
20058;BMP180;10189;49.546;7.906;2022-09-21T12:51:41;98916.00;;;17.40
20058;BMP180;10189;49.546;7.906;2022-09-21T12:53:53;98916.00;;;17.80
20058;BMP180;10189;49.546;7.906;2022-09-21T12:56:33;98910.00;;;17.80
20058;BMP180;10189;49.546;7.906;2022-09-21T12:59:24;98920.00;;;17.70
20058;BMP180;10189;49.546;7.906;2022-09-21T13:02:12;98915.00;;;17.80
20058;BMP180;10189;49.546;7.906;2022-09-21T13:10:38;98890.00;;;18.00
20058;BMP180;10189;49.546;7.906;2022-09-21T13:13:18;98896.00;;;18.10
20058;BMP180;10189;49.546;7.906;2022-09-21T13:15:47;98897.00;;;17.90
20058;BMP180;10189;49.546;7.906;2022-09-21T13:18:39;98900.00;;;18.00
20058;BMP180;10189;49.546;7.906;2022-09-21T13:21:23;98899.00;;;18.10
20058;BMP180;10189;49.546;7.906;2022-09-21T13:24:02;98899.00;;;18.10
20058;BMP180;10189;49.546;7.906;2022-09-21T13:26:39;98899.00;;;17.50
20058;BMP180;10189;49.546;7.906;2022-09-21T13:34:44;98897.00;;;17.80
20058;BMP180;10189;49.546;7.906;2022-09-21T13:37:22;98891.00;;;17.90
20058;BMP180;10189;49.546;7.906;2022-09-21T13:40:29;98900.00;;;17.70
20058;BMP180;10189;49.546;7.906;2022-09-21T13:42:48;98893.00;;;17.70
20058;BMP180;10189;49.546;7.906;2022-09-21T13:47:57;98886.00;;;17.80
20058;BMP180;10189;49.546;7.906;2022-09-21T13:50:41;98887.00;;;17.80
20058;BMP180;10189;49.546;7.906;2022-09-21T13:53:22;98878.00;;;17.90
20058;BMP180;10189;49.546;7.906;2022-09-21T13:56:19;98873.00;;;18.00
20058;BMP180;10189;49.546;7.906;2022-09-21T13:58:51;98876.00;;;17.90
20058;BMP180;10189;49.546;7.906;2022-09-21T14:01:32;98883.00;;;17.70
20058;BMP180;10189;49.546;7.906;2022-09-21T14:04:19;98878.00;;;17.90
20058;BMP180;10189;49.546;7.906;2022-09-21T14:06:49;98873.00;;;17.90
20058;BMP180;10189;49.546;7.906;2022-09-21T14:09:26;98872.00;;;18.10
20058;BMP180;10189;49.546;7.906;2022-09-21T14:12:07;98862.00;;;17.90
20058;BMP180;10189;49.546;7.906;2022-09-21T14:14:40;98869.00;;;17.90
20058;BMP180;10189;49.546;7.906;2022-09-21T14:17:35;98867.00;;;17.70
20058;BMP180;10189;49.546;7.906;2022-09-21T14:20:03;98864.00;;;17.90
20058;BMP180;10189;49.546;7.906;2022-09-21T14:22:35;98865.00;;;18.10
20058;BMP180;10189;49.546;7.906;2022-09-21T14:27:51;98859.00;;;18.20
20058;BMP180;10189;49.546;7.906;2022-09-21T14:30:24;98852.00;;;17.90
20058;BMP180;10189;49.546;7.906;2022-09-21T14:35:40;98862.00;;;18.10
20058;BMP180;10189;49.546;7.906;2022-09-21T14:38:29;98859.00;;;17.90
20058;BMP180;10189;49.546;7.906;2022-09-21T14:41:02;98860.00;;;17.90
20058;BMP180;10189;49.546;7.906;2022-09-21T14:43:34;98858.00;;;17.80
20058;BMP180;10189;49.546;7.906;2022-09-21T14:46:30;98848.00;;;17.90
20058;BMP180;10189;49.546;7.906;2022-09-21T14:52:24;98850.00;;;18.00
20058;BMP180;10189;49.546;7.906;2022-09-21T15:00:44;98837.00;;;17.90
20058;BMP180;10189;49.546;7.906;2022-09-21T15:03:44;98834.00;;;18.00
20058;BMP180;10189;49.546;7.906;2022-09-21T15:06:44;98829.00;;;18.20
20058;BMP180;10189;49.546;7.906;2022-09-21T15:12:42;98838.00;;;18.40
20058;BMP180;10189;49.546;7.906;2022-09-21T15:18:23;98834.00;;;18.10
20058;BMP180;10189;49.546;7.906;2022-09-21T15:21:00;98827.00;;;17.90
20058;BMP180;10189;49.546;7.906;2022-09-21T15:23:53;98819.00;;;17.70
20058;BMP180;10189;49.546;7.906;2022-09-21T15:26:32;98818.00;;;17.70
20058;BMP180;10189;49.546;7.906;2022-09-21T15:29:02;98822.00;;;17.70
20058;BMP180;10189;49.546;7.906;2022-09-21T15:31:38;98823.00;;;17.70
20058;BMP180;10189;49.546;7.906;2022-09-21T15:34:06;98820.00;;;17.70
20058;BMP180;10189;49.546;7.906;2022-09-21T15:36:38;98813.00;;;17.60
20058;BMP180;10189;49.546;7.906;2022-09-21T15:39:05;98813.00;;;17.60
20058;BMP180;10189;49.546;7.906;2022-09-21T15:44:24;98817.00;;;17.50
20058;BMP180;10189;49.546;7.906;2022-09-21T15:46:56;98823.00;;;17.50
20058;BMP180;10189;49.546;7.906;2022-09-21T15:49:27;98819.00;;;17.50
20058;BMP180;10189;49.546;7.906;2022-09-21T15:57:38;98825.00;;;17.30
20058;BMP180;10189;49.546;7.906;2022-09-21T16:00:35;98828.00;;;17.20
20058;BMP180;10189;49.546;7.906;2022-09-21T16:03:06;98823.00;;;17.20
20058;BMP180;10189;49.546;7.906;2022-09-21T16:05:47;98825.00;;;17.20
20058;BMP180;10189;49.546;7.906;2022-09-21T16:08:35;98827.00;;;17.10
20058;BMP180;10189;49.546;7.906;2022-09-21T16:14:03;98830.00;;;16.90
20058;BMP180;10189;49.546;7.906;2022-09-21T16:20:14;98828.00;;;16.80
20058;BMP180;10189;49.546;7.906;2022-09-21T16:22:47;98837.00;;;16.90
20058;BMP180;10189;49.546;7.906;2022-09-21T16:25:33;98827.00;;;16.80
20058;BMP180;10189;49.546;7.906;2022-09-21T16:30:51;98826.00;;;16.70
20058;BMP180;10189;49.546;7.906;2022-09-21T16:38:45;98844.00;;;16.80
20058;BMP180;10189;49.546;7.906;2022-09-21T16:41:47;98839.00;;;16.70
20058;BMP180;10189;49.546;7.906;2022-09-21T16:44:17;98843.00;;;16.60
20058;BMP180;10189;49.546;7.906;2022-09-21T16:46:54;98835.00;;;16.60
20058;BMP180;10189;49.546;7.906;2022-09-21T16:49:22;98840.00;;;16.60
20058;BMP180;10189;49.546;7.906;2022-09-21T16:51:50;98835.00;;;16.50
20058;BMP180;10189;49.546;7.906;2022-09-21T16:54:19;98829.00;;;16.40
20058;BMP180;10189;49.546;7.906;2022-09-21T16:56:51;98848.00;;;16.30
20058;BMP180;10189;49.546;7.906;2022-09-21T16:59:19;98847.00;;;16.20
20058;BMP180;10189;49.546;7.906;2022-09-21T17:01:49;98851.00;;;16.10
20058;BMP180;10189;49.546;7.906;2022-09-21T17:04:20;98848.00;;;16.00
20058;BMP180;10189;49.546;7.906;2022-09-21T17:06:51;98851.00;;;16.00
20058;BMP180;10189;49.546;7.906;2022-09-21T17:09:21;98848.00;;;15.90
20058;BMP180;10189;49.546;7.906;2022-09-21T17:11:49;98847.00;;;15.70
20058;BMP180;10189;49.546;7.906;2022-09-21T17:14:17;98851.00;;;15.50
20058;BMP180;10189;49.546;7.906;2022-09-21T17:16:50;98851.00;;;15.30
20058;BMP180;10189;49.546;7.906;2022-09-21T17:19:17;98859.00;;;15.10
20058;BMP180;10189;49.546;7.906;2022-09-21T17:21:45;98861.00;;;15.00
20058;BMP180;10189;49.546;7.906;2022-09-21T17:24:13;98857.00;;;14.80
20058;BMP180;10189;49.546;7.906;2022-09-21T17:26:40;98860.00;;;14.70
20058;BMP180;10189;49.546;7.906;2022-09-21T17:31:56;98858.00;;;14.20
20058;BMP180;10189;49.546;7.906;2022-09-21T17:34:26;98871.00;;;14.00
20058;BMP180;10189;49.546;7.906;2022-09-21T17:36:53;98869.00;;;13.80
20058;BMP180;10189;49.546;7.906;2022-09-21T17:39:21;98875.00;;;13.70
20058;BMP180;10189;49.546;7.906;2022-09-21T17:41:54;98873.00;;;13.60
20058;BMP180;10189;49.546;7.906;2022-09-21T17:44:58;98879.00;;;13.40
20058;BMP180;10189;49.546;7.906;2022-09-21T17:47:28;98872.00;;;13.40